sensor_id;sensor_type;location;lat;lon;timestamp;temperature;humidity
70682;SHT31;58261;48.228;11.686;2022-09-13T00:02:56;15.6;72
70682;SHT31;58261;48.228;11.686;2022-09-13T00:06:17;15.4;72
70682;SHT31;58261;48.228;11.686;2022-09-13T00:09:36;15.4;72
70682;SHT31;58261;48.228;11.686;2022-09-13T00:12:56;15.4;72
70682;SHT31;58261;48.228;11.686;2022-09-13T00:16:16;15.4;72
70682;SHT31;58261;48.228;11.686;2022-09-13T00:19:36;15.4;72
70682;SHT31;58261;48.228;11.686;2022-09-13T00:22:56;15.4;72
70682;SHT31;58261;48.228;11.686;2022-09-13T00:26:17;15.4;72
70682;SHT31;58261;48.228;11.686;2022-09-13T00:29:36;15.3;72
70682;SHT31;58261;48.228;11.686;2022-09-13T00:32:56;15.3;72
70682;SHT31;58261;48.228;11.686;2022-09-13T00:36:16;15.3;72
70682;SHT31;58261;48.228;11.686;2022-09-13T00:39:36;15.3;71
70682;SHT31;58261;48.228;11.686;2022-09-13T00:42:56;15.3;71
70682;SHT31;58261;48.228;11.686;2022-09-13T00:46:19;15.3;71
70682;SHT31;58261;48.228;11.686;2022-09-13T00:49:36;15.2;72
70682;SHT31;58261;48.228;11.686;2022-09-13T00:52:57;15.2;72
70682;SHT31;58261;48.228;11.686;2022-09-13T00:56:16;15.2;72
70682;SHT31;58261;48.228;11.686;2022-09-13T00:59:37;15.2;72
70682;SHT31;58261;48.228;11.686;2022-09-13T01:02:56;15.2;72
70682;SHT31;58261;48.228;11.686;2022-09-13T01:06:16;15.2;72
70682;SHT31;58261;48.228;11.686;2022-09-13T01:09:36;15.2;72
70682;SHT31;58261;48.228;11.686;2022-09-13T01:12:58;15.1;72
70682;SHT31;58261;48.228;11.686;2022-09-13T01:16:16;15.1;72
70682;SHT31;58261;48.228;11.686;2022-09-13T01:19:36;15.1;72
70682;SHT31;58261;48.228;11.686;2022-09-13T01:23:05;15.0;72
70682;SHT31;58261;48.228;11.686;2022-09-13T01:26:24;15.0;72
70682;SHT31;58261;48.228;11.686;2022-09-13T01:29:41;15.0;72
70682;SHT31;58261;48.228;11.686;2022-09-13T01:32:59;14.7;72
70682;SHT31;58261;48.228;11.686;2022-09-13T01:39:41;14.7;72
70682;SHT31;58261;48.228;11.686;2022-09-13T01:43:00;14.6;72
70682;SHT31;58261;48.228;11.686;2022-09-13T01:46:16;14.6;72
70682;SHT31;58261;48.228;11.686;2022-09-13T01:49:38;14.6;72
70682;SHT31;58261;48.228;11.686;2022-09-13T01:52:56;14.6;72
70682;SHT31;58261;48.228;11.686;2022-09-13T01:56:17;14.5;72
70682;SHT31;58261;48.228;11.686;2022-09-13T01:59:37;14.5;72
70682;SHT31;58261;48.228;11.686;2022-09-13T02:02:57;14.5;72
70682;SHT31;58261;48.228;11.686;2022-09-13T02:06:17;14.4;73
70682;SHT31;58261;48.228;11.686;2022-09-13T02:09:38;14.4;73
70682;SHT31;58261;48.228;11.686;2022-09-13T02:12:56;14.4;73
70682;SHT31;58261;48.228;11.686;2022-09-13T02:16:17;14.3;73
70682;SHT31;58261;48.228;11.686;2022-09-13T02:19:37;14.3;73
70682;SHT31;58261;48.228;11.686;2022-09-13T02:22:56;14.3;73
70682;SHT31;58261;48.228;11.686;2022-09-13T02:26:16;14.2;72
70682;SHT31;58261;48.228;11.686;2022-09-13T02:29:36;14.2;72
70682;SHT31;58261;48.228;11.686;2022-09-13T02:32:56;14.2;72
70682;SHT31;58261;48.228;11.686;2022-09-13T02:36:17;14.2;72
70682;SHT31;58261;48.228;11.686;2022-09-13T02:39:36;14.2;73
70682;SHT31;58261;48.228;11.686;2022-09-13T02:42:57;14.2;73
70682;SHT31;58261;48.228;11.686;2022-09-13T02:46:20;14.2;73
70682;SHT31;58261;48.228;11.686;2022-09-13T02:49:40;14.1;72
70682;SHT31;58261;48.228;11.686;2022-09-13T02:52:58;14.1;72
70682;SHT31;58261;48.228;11.686;2022-09-13T02:56:19;14.1;72
70682;SHT31;58261;48.228;11.686;2022-09-13T02:59:36;14.0;73
70682;SHT31;58261;48.228;11.686;2022-09-13T03:02:56;14.0;73
70682;SHT31;58261;48.228;11.686;2022-09-13T03:06:20;14.0;73
70682;SHT31;58261;48.228;11.686;2022-09-13T03:09:36;14.0;72
70682;SHT31;58261;48.228;11.686;2022-09-13T03:13:02;14.0;72
70682;SHT31;58261;48.228;11.686;2022-09-13T03:16:21;14.0;72
70682;SHT31;58261;48.228;11.686;2022-09-13T03:19:45;14.0;72
70682;SHT31;58261;48.228;11.686;2022-09-13T03:23:02;13.8;73
70682;SHT31;58261;48.228;11.686;2022-09-13T03:26:20;13.8;73
70682;SHT31;58261;48.228;11.686;2022-09-13T03:29:38;13.8;73
70682;SHT31;58261;48.228;11.686;2022-09-13T03:32:57;13.9;73
70682;SHT31;58261;48.228;11.686;2022-09-13T03:36:18;13.9;73
70682;SHT31;58261;48.228;11.686;2022-09-13T03:39:39;13.9;73
70682;SHT31;58261;48.228;11.686;2022-09-13T03:42:57;13.8;73
70682;SHT31;58261;48.228;11.686;2022-09-13T03:46:17;13.8;73
70682;SHT31;58261;48.228;11.686;2022-09-13T03:49:36;13.8;73
70682;SHT31;58261;48.228;11.686;2022-09-13T03:52:58;13.8;73
70682;SHT31;58261;48.228;11.686;2022-09-13T03:56:17;13.8;72
70682;SHT31;58261;48.228;11.686;2022-09-13T03:59:36;13.8;72
70682;SHT31;58261;48.228;11.686;2022-09-13T04:02:56;13.8;72
70682;SHT31;58261;48.228;11.686;2022-09-13T04:06:16;13.8;74
70682;SHT31;58261;48.228;11.686;2022-09-13T04:09:36;13.8;74
70682;SHT31;58261;48.228;11.686;2022-09-13T04:12:56;13.8;74
70682;SHT31;58261;48.228;11.686;2022-09-13T04:16:16;13.8;74
70682;SHT31;58261;48.228;11.686;2022-09-13T04:19:36;13.8;74
70682;SHT31;58261;48.228;11.686;2022-09-13T04:22:56;13.8;74
70682;SHT31;58261;48.228;11.686;2022-09-13T04:26:16;13.8;75
70682;SHT31;58261;48.228;11.686;2022-09-13T04:29:36;13.8;75
70682;SHT31;58261;48.228;11.686;2022-09-13T04:32:56;13.8;75
70682;SHT31;58261;48.228;11.686;2022-09-13T04:36:16;13.8;75
70682;SHT31;58261;48.228;11.686;2022-09-13T04:39:36;13.8;74
70682;SHT31;58261;48.228;11.686;2022-09-13T04:42:56;13.8;74
70682;SHT31;58261;48.228;11.686;2022-09-13T04:46:16;13.8;74
70682;SHT31;58261;48.228;11.686;2022-09-13T04:49:36;13.8;73
70682;SHT31;58261;48.228;11.686;2022-09-13T04:52:56;13.8;73
70682;SHT31;58261;48.228;11.686;2022-09-13T04:56:16;13.8;73
70682;SHT31;58261;48.228;11.686;2022-09-13T04:59:36;13.8;74
70682;SHT31;58261;48.228;11.686;2022-09-13T05:02:56;13.8;74
70682;SHT31;58261;48.228;11.686;2022-09-13T05:06:16;13.8;74
70682;SHT31;58261;48.228;11.686;2022-09-13T05:09:36;13.8;74
70682;SHT31;58261;48.228;11.686;2022-09-13T05:12:56;13.8;74
70682;SHT31;58261;48.228;11.686;2022-09-13T05:16:16;13.8;74
70682;SHT31;58261;48.228;11.686;2022-09-13T05:19:36;13.8;74
70682;SHT31;58261;48.228;11.686;2022-09-13T05:22:56;13.7;73
70682;SHT31;58261;48.228;11.686;2022-09-13T05:26:16;13.7;73
70682;SHT31;58261;48.228;11.686;2022-09-13T05:29:36;13.7;73
70682;SHT31;58261;48.228;11.686;2022-09-13T05:32:56;13.7;74
70682;SHT31;58261;48.228;11.686;2022-09-13T05:36:16;13.7;74
70682;SHT31;58261;48.228;11.686;2022-09-13T05:39:36;13.7;74
70682;SHT31;58261;48.228;11.686;2022-09-13T05:42:56;13.8;75
70682;SHT31;58261;48.228;11.686;2022-09-13T05:46:17;13.8;75
70682;SHT31;58261;48.228;11.686;2022-09-13T05:49:36;13.8;75
70682;SHT31;58261;48.228;11.686;2022-09-13T05:52:56;13.8;75
70682;SHT31;58261;48.228;11.686;2022-09-13T05:56:17;13.8;75
70682;SHT31;58261;48.228;11.686;2022-09-13T05:59:36;13.8;75
70682;SHT31;58261;48.228;11.686;2022-09-13T06:02:56;13.8;75
70682;SHT31;58261;48.228;11.686;2022-09-13T06:06:17;14.0;76
70682;SHT31;58261;48.228;11.686;2022-09-13T06:09:36;14.0;76
70682;SHT31;58261;48.228;11.686;2022-09-13T06:12:56;14.0;76
70682;SHT31;58261;48.228;11.686;2022-09-13T06:16:16;14.1;76
70682;SHT31;58261;48.228;11.686;2022-09-13T06:19:36;14.1;76
70682;SHT31;58261;48.228;11.686;2022-09-13T06:22:56;14.1;76
70682;SHT31;58261;48.228;11.686;2022-09-13T06:26:17;14.2;76
70682;SHT31;58261;48.228;11.686;2022-09-13T06:29:36;14.2;76
70682;SHT31;58261;48.228;11.686;2022-09-13T06:32:56;14.2;76
70682;SHT31;58261;48.228;11.686;2022-09-13T06:36:17;14.3;77
70682;SHT31;58261;48.228;11.686;2022-09-13T06:39:36;14.3;77
70682;SHT31;58261;48.228;11.686;2022-09-13T06:42:56;14.3;77
70682;SHT31;58261;48.228;11.686;2022-09-13T06:46:17;14.3;77
70682;SHT31;58261;48.228;11.686;2022-09-13T06:49:36;14.5;77
70682;SHT31;58261;48.228;11.686;2022-09-13T06:52:56;14.5;77
70682;SHT31;58261;48.228;11.686;2022-09-13T06:56:17;14.5;77
70682;SHT31;58261;48.228;11.686;2022-09-13T06:59:36;14.6;78
70682;SHT31;58261;48.228;11.686;2022-09-13T07:02:56;14.6;78
70682;SHT31;58261;48.228;11.686;2022-09-13T07:06:17;14.6;78
70682;SHT31;58261;48.228;11.686;2022-09-13T07:09:36;14.8;77
70682;SHT31;58261;48.228;11.686;2022-09-13T07:12:56;14.8;77
70682;SHT31;58261;48.228;11.686;2022-09-13T07:16:17;14.8;77
70682;SHT31;58261;48.228;11.686;2022-09-13T07:19:36;15.0;77
70682;SHT31;58261;48.228;11.686;2022-09-13T07:22:56;15.0;77
70682;SHT31;58261;48.228;11.686;2022-09-13T07:26:17;15.0;77
70682;SHT31;58261;48.228;11.686;2022-09-13T07:29:36;15.0;77
70682;SHT31;58261;48.228;11.686;2022-09-13T07:32:56;15.3;77
70682;SHT31;58261;48.228;11.686;2022-09-13T07:36:16;15.3;77
70682;SHT31;58261;48.228;11.686;2022-09-13T07:39:36;15.3;77
70682;SHT31;58261;48.228;11.686;2022-09-13T07:42:56;15.5;76
70682;SHT31;58261;48.228;11.686;2022-09-13T07:46:17;15.5;76
70682;SHT31;58261;48.228;11.686;2022-09-13T07:49:36;15.5;76
70682;SHT31;58261;48.228;11.686;2022-09-13T07:52:56;15.7;75
70682;SHT31;58261;48.228;11.686;2022-09-13T07:56:17;15.7;75
70682;SHT31;58261;48.228;11.686;2022-09-13T07:59:36;15.7;75
70682;SHT31;58261;48.228;11.686;2022-09-13T08:02:56;16.0;74
70682;SHT31;58261;48.228;11.686;2022-09-13T08:06:17;16.0;74
70682;SHT31;58261;48.228;11.686;2022-09-13T08:09:36;16.0;74
70682;SHT31;58261;48.228;11.686;2022-09-13T08:12:56;16.0;74
70682;SHT31;58261;48.228;11.686;2022-09-13T08:16:17;16.2;73
70682;SHT31;58261;48.228;11.686;2022-09-13T08:19:36;16.2;73
70682;SHT31;58261;48.228;11.686;2022-09-13T08:22:57;16.2;73
70682;SHT31;58261;48.228;11.686;2022-09-13T08:26:17;16.4;74
70682;SHT31;58261;48.228;11.686;2022-09-13T08:29:37;16.4;74
70682;SHT31;58261;48.228;11.686;2022-09-13T08:32:57;16.4;74
70682;SHT31;58261;48.228;11.686;2022-09-13T08:36:17;16.6;72
70682;SHT31;58261;48.228;11.686;2022-09-13T08:39:37;16.6;72
70682;SHT31;58261;48.228;11.686;2022-09-13T08:42:57;16.6;72
70682;SHT31;58261;48.228;11.686;2022-09-13T08:46:19;16.6;72
70682;SHT31;58261;48.228;11.686;2022-09-13T08:49:38;17.1;68
70682;SHT31;58261;48.228;11.686;2022-09-13T08:52:59;17.1;68
70682;SHT31;58261;48.228;11.686;2022-09-13T08:56:18;17.1;68
70682;SHT31;58261;48.228;11.686;2022-09-13T08:59:42;17.2;69
70682;SHT31;58261;48.228;11.686;2022-09-13T09:02:59;17.2;69
70682;SHT31;58261;48.228;11.686;2022-09-13T09:06:17;17.2;69
70682;SHT31;58261;48.228;11.686;2022-09-13T09:09:39;17.6;67
70682;SHT31;58261;48.228;11.686;2022-09-13T09:12:57;17.6;67
70682;SHT31;58261;48.228;11.686;2022-09-13T09:16:24;17.6;67
70682;SHT31;58261;48.228;11.686;2022-09-13T09:19:38;17.9;65
70682;SHT31;58261;48.228;11.686;2022-09-13T09:22:58;17.9;65
70682;SHT31;58261;48.228;11.686;2022-09-13T09:26:18;17.9;65
70682;SHT31;58261;48.228;11.686;2022-09-13T09:29:37;17.9;65
70682;SHT31;58261;48.228;11.686;2022-09-13T09:33:01;18.3;65
70682;SHT31;58261;48.228;11.686;2022-09-13T09:36:19;18.3;65
70682;SHT31;58261;48.228;11.686;2022-09-13T09:39:37;18.3;65
70682;SHT31;58261;48.228;11.686;2022-09-13T09:42:57;18.4;66
70682;SHT31;58261;48.228;11.686;2022-09-13T09:46:17;18.4;66
70682;SHT31;58261;48.228;11.686;2022-09-13T09:49:38;18.4;66
70682;SHT31;58261;48.228;11.686;2022-09-13T09:52:58;18.7;66
70682;SHT31;58261;48.228;11.686;2022-09-13T09:56:19;18.7;66
70682;SHT31;58261;48.228;11.686;2022-09-13T09:59:37;18.7;66
70682;SHT31;58261;48.228;11.686;2022-09-13T10:02:57;18.9;64
70682;SHT31;58261;48.228;11.686;2022-09-13T10:06:18;18.9;64
70682;SHT31;58261;48.228;11.686;2022-09-13T10:09:37;18.9;64
70682;SHT31;58261;48.228;11.686;2022-09-13T10:12:57;18.9;64
70682;SHT31;58261;48.228;11.686;2022-09-13T10:16:22;19.2;65
70682;SHT31;58261;48.228;11.686;2022-09-13T10:19:37;19.2;65
70682;SHT31;58261;48.228;11.686;2022-09-13T10:26:17;19.7;63
70682;SHT31;58261;48.228;11.686;2022-09-13T10:29:37;19.7;63
70682;SHT31;58261;48.228;11.686;2022-09-13T10:32:57;19.7;63
70682;SHT31;58261;48.228;11.686;2022-09-13T10:36:17;19.6;63
70682;SHT31;58261;48.228;11.686;2022-09-13T10:39:38;19.6;63
70682;SHT31;58261;48.228;11.686;2022-09-13T10:42:57;19.6;63
70682;SHT31;58261;48.228;11.686;2022-09-13T10:46:20;19.6;63
70682;SHT31;58261;48.228;11.686;2022-09-13T10:49:38;19.6;63
70682;SHT31;58261;48.228;11.686;2022-09-13T10:52:57;19.6;63
70682;SHT31;58261;48.228;11.686;2022-09-13T10:56:18;19.6;63
70682;SHT31;58261;48.228;11.686;2022-09-13T10:59:37;19.8;62
70682;SHT31;58261;48.228;11.686;2022-09-13T11:02:59;19.8;62
70682;SHT31;58261;48.228;11.686;2022-09-13T11:06:17;19.8;62
70682;SHT31;58261;48.228;11.686;2022-09-13T11:09:38;20.2;61
70682;SHT31;58261;48.228;11.686;2022-09-13T11:12:59;20.2;61
70682;SHT31;58261;48.228;11.686;2022-09-13T11:16:21;20.2;61
70682;SHT31;58261;48.228;11.686;2022-09-13T11:19:42;20.4;61
70682;SHT31;58261;48.228;11.686;2022-09-13T11:23:02;20.4;61
70682;SHT31;58261;48.228;11.686;2022-09-13T11:26:24;20.4;61
70682;SHT31;58261;48.228;11.686;2022-09-13T11:29:41;20.9;57
70682;SHT31;58261;48.228;11.686;2022-09-13T11:36:22;20.9;57
70682;SHT31;58261;48.228;11.686;2022-09-13T11:39:37;20.9;57
70682;SHT31;58261;48.228;11.686;2022-09-13T11:43:00;20.9;57
70682;SHT31;58261;48.228;11.686;2022-09-13T11:46:19;20.9;57
70682;SHT31;58261;48.228;11.686;2022-09-13T11:53:01;21.3;55
70682;SHT31;58261;48.228;11.686;2022-09-13T11:56:18;21.3;55
70682;SHT31;58261;48.228;11.686;2022-09-13T11:59:37;21.3;55
70682;SHT31;58261;48.228;11.686;2022-09-13T12:02:59;21.1;57
70682;SHT31;58261;48.228;11.686;2022-09-13T12:06:18;21.1;57
70682;SHT31;58261;48.228;11.686;2022-09-13T12:09:39;21.1;57
70682;SHT31;58261;48.228;11.686;2022-09-13T12:12:57;21.1;57
70682;SHT31;58261;48.228;11.686;2022-09-13T12:16:19;21.3;57
70682;SHT31;58261;48.228;11.686;2022-09-13T12:19:39;21.3;57
70682;SHT31;58261;48.228;11.686;2022-09-13T12:22:57;21.3;57
70682;SHT31;58261;48.228;11.686;2022-09-13T12:26:17;21.5;57
70682;SHT31;58261;48.228;11.686;2022-09-13T12:29:39;21.5;57
70682;SHT31;58261;48.228;11.686;2022-09-13T12:32:57;21.5;57
70682;SHT31;58261;48.228;11.686;2022-09-13T12:36:22;21.5;55
70682;SHT31;58261;48.228;11.686;2022-09-13T12:39:40;21.5;55
70682;SHT31;58261;48.228;11.686;2022-09-13T12:43:00;21.5;55
70682;SHT31;58261;48.228;11.686;2022-09-13T12:46:20;21.7;54
70682;SHT31;58261;48.228;11.686;2022-09-13T12:49:42;21.7;54
70682;SHT31;58261;48.228;11.686;2022-09-13T12:53:00;21.7;54
70682;SHT31;58261;48.228;11.686;2022-09-13T12:56:22;21.7;54
70682;SHT31;58261;48.228;11.686;2022-09-13T12:59:41;21.8;52
70682;SHT31;58261;48.228;11.686;2022-09-13T13:03:00;21.8;52
70682;SHT31;58261;48.228;11.686;2022-09-13T13:06:20;21.8;52
70682;SHT31;58261;48.228;11.686;2022-09-13T13:09:38;22.0;55
70682;SHT31;58261;48.228;11.686;2022-09-13T13:16:22;22.0;55
70682;SHT31;58261;48.228;11.686;2022-09-13T13:19:37;22.2;53
70682;SHT31;58261;48.228;11.686;2022-09-13T13:23:02;22.2;53
70682;SHT31;58261;48.228;11.686;2022-09-13T13:29:37;22.4;50
70682;SHT31;58261;48.228;11.686;2022-09-13T13:36:19;22.4;50
70682;SHT31;58261;48.228;11.686;2022-09-13T13:39:38;22.4;50
70682;SHT31;58261;48.228;11.686;2022-09-13T13:49:41;22.7;49
70682;SHT31;58261;48.228;11.686;2022-09-13T13:52:57;23.1;48
70682;SHT31;58261;48.228;11.686;2022-09-13T13:56:18;23.1;48
70682;SHT31;58261;48.228;11.686;2022-09-13T13:59:37;23.1;48
70682;SHT31;58261;48.228;11.686;2022-09-13T14:03:02;23.2;48
70682;SHT31;58261;48.228;11.686;2022-09-13T14:06:18;23.2;48
70682;SHT31;58261;48.228;11.686;2022-09-13T14:09:38;23.2;48
70682;SHT31;58261;48.228;11.686;2022-09-13T14:13:10;23.5;46
70682;SHT31;58261;48.228;11.686;2022-09-13T14:16:22;23.5;46
70682;SHT31;58261;48.228;11.686;2022-09-13T14:19:38;23.5;46
70682;SHT31;58261;48.228;11.686;2022-09-13T14:26:17;23.4;47
70682;SHT31;58261;48.228;11.686;2022-09-13T14:29:37;23.4;47
70682;SHT31;58261;48.228;11.686;2022-09-13T14:32:57;23.4;47
70682;SHT31;58261;48.228;11.686;2022-09-13T14:36:18;23.3;49
70682;SHT31;58261;48.228;11.686;2022-09-13T14:39:37;23.3;49
70682;SHT31;58261;48.228;11.686;2022-09-13T14:42:57;23.3;49
70682;SHT31;58261;48.228;11.686;2022-09-13T14:46:19;23.3;49
70682;SHT31;58261;48.228;11.686;2022-09-13T14:49:38;23.3;49
70682;SHT31;58261;48.228;11.686;2022-09-13T14:52:58;23.3;49
70682;SHT31;58261;48.228;11.686;2022-09-13T14:56:18;23.3;49
70682;SHT31;58261;48.228;11.686;2022-09-13T14:59:40;23.4;53
70682;SHT31;58261;48.228;11.686;2022-09-13T15:02:58;23.4;53
70682;SHT31;58261;48.228;11.686;2022-09-13T15:06:19;23.4;53
70682;SHT31;58261;48.228;11.686;2022-09-13T15:09:37;23.4;54
70682;SHT31;58261;48.228;11.686;2022-09-13T15:13:05;23.4;54
70682;SHT31;58261;48.228;11.686;2022-09-13T15:19:39;23.5;53
70682;SHT31;58261;48.228;11.686;2022-09-13T15:22:57;23.5;53
70682;SHT31;58261;48.228;11.686;2022-09-13T15:26:18;23.5;53
70682;SHT31;58261;48.228;11.686;2022-09-13T15:29:37;23.3;53
70682;SHT31;58261;48.228;11.686;2022-09-13T15:39:41;23.3;53
70682;SHT31;58261;48.228;11.686;2022-09-13T15:42:57;23.2;57
70682;SHT31;58261;48.228;11.686;2022-09-13T15:46:17;23.2;57
70682;SHT31;58261;48.228;11.686;2022-09-13T15:49:38;23.2;57
70682;SHT31;58261;48.228;11.686;2022-09-13T15:52:58;23.2;57
70682;SHT31;58261;48.228;11.686;2022-09-13T15:56:18;23.2;57
70682;SHT31;58261;48.228;11.686;2022-09-13T15:59:37;23.2;57
70682;SHT31;58261;48.228;11.686;2022-09-13T16:02:57;23.0;57
70682;SHT31;58261;48.228;11.686;2022-09-13T16:06:17;23.0;57
70682;SHT31;58261;48.228;11.686;2022-09-13T16:09:37;23.0;57
70682;SHT31;58261;48.228;11.686;2022-09-13T16:12:57;22.9;59
70682;SHT31;58261;48.228;11.686;2022-09-13T16:16:17;22.9;59
70682;SHT31;58261;48.228;11.686;2022-09-13T16:19:37;22.9;59
70682;SHT31;58261;48.228;11.686;2022-09-13T16:22:57;22.9;59
70682;SHT31;58261;48.228;11.686;2022-09-13T16:26:17;22.8;61
70682;SHT31;58261;48.228;11.686;2022-09-13T16:29:37;22.8;61
70682;SHT31;58261;48.228;11.686;2022-09-13T16:32:57;22.8;61
70682;SHT31;58261;48.228;11.686;2022-09-13T16:36:17;22.7;61
70682;SHT31;58261;48.228;11.686;2022-09-13T16:39:37;22.7;61
70682;SHT31;58261;48.228;11.686;2022-09-13T16:42:57;22.7;61
70682;SHT31;58261;48.228;11.686;2022-09-13T16:46:17;22.6;62
70682;SHT31;58261;48.228;11.686;2022-09-13T16:49:37;22.6;62
70682;SHT31;58261;48.228;11.686;2022-09-13T16:52:57;22.6;62
70682;SHT31;58261;48.228;11.686;2022-09-13T16:56:18;22.6;62
70682;SHT31;58261;48.228;11.686;2022-09-13T16:59:37;22.6;63
70682;SHT31;58261;48.228;11.686;2022-09-13T17:02:57;22.6;63
70682;SHT31;58261;48.228;11.686;2022-09-13T17:06:18;22.6;63
70682;SHT31;58261;48.228;11.686;2022-09-13T17:09:37;22.5;64
70682;SHT31;58261;48.228;11.686;2022-09-13T17:12:57;22.5;64
70682;SHT31;58261;48.228;11.686;2022-09-13T17:16:19;22.5;64
70682;SHT31;58261;48.228;11.686;2022-09-13T17:19:37;22.4;64
70682;SHT31;58261;48.228;11.686;2022-09-13T17:22:57;22.4;64
70682;SHT31;58261;48.228;11.686;2022-09-13T17:26:17;22.4;64
70682;SHT31;58261;48.228;11.686;2022-09-13T17:29:37;22.4;65
70682;SHT31;58261;48.228;11.686;2022-09-13T17:32:57;22.4;65
70682;SHT31;58261;48.228;11.686;2022-09-13T17:36:17;22.4;65
70682;SHT31;58261;48.228;11.686;2022-09-13T17:39:37;22.4;65
70682;SHT31;58261;48.228;11.686;2022-09-13T17:42:58;22.2;67
70682;SHT31;58261;48.228;11.686;2022-09-13T17:46:18;22.2;67
70682;SHT31;58261;48.228;11.686;2022-09-13T17:49:37;22.2;67
70682;SHT31;58261;48.228;11.686;2022-09-13T17:52:57;22.1;66
70682;SHT31;58261;48.228;11.686;2022-09-13T17:56:18;22.1;66
70682;SHT31;58261;48.228;11.686;2022-09-13T17:59:37;22.1;66
70682;SHT31;58261;48.228;11.686;2022-09-13T18:02:57;22.0;66
70682;SHT31;58261;48.228;11.686;2022-09-13T18:06:17;22.0;66
70682;SHT31;58261;48.228;11.686;2022-09-13T18:09:37;22.0;66
70682;SHT31;58261;48.228;11.686;2022-09-13T18:12:58;21.9;66
70682;SHT31;58261;48.228;11.686;2022-09-13T18:16:18;21.9;66
70682;SHT31;58261;48.228;11.686;2022-09-13T18:19:38;21.9;66
70682;SHT31;58261;48.228;11.686;2022-09-13T18:22:58;21.9;66
70682;SHT31;58261;48.228;11.686;2022-09-13T18:26:18;21.8;67
70682;SHT31;58261;48.228;11.686;2022-09-13T18:29:38;21.8;67
70682;SHT31;58261;48.228;11.686;2022-09-13T18:32:58;21.8;67
70682;SHT31;58261;48.228;11.686;2022-09-13T18:36:18;21.6;67
70682;SHT31;58261;48.228;11.686;2022-09-13T18:39:38;21.6;67
70682;SHT31;58261;48.228;11.686;2022-09-13T18:42:58;21.6;67
70682;SHT31;58261;48.228;11.686;2022-09-13T18:46:18;21.6;68
70682;SHT31;58261;48.228;11.686;2022-09-13T18:49:38;21.6;68
70682;SHT31;58261;48.228;11.686;2022-09-13T18:52:58;21.6;68
70682;SHT31;58261;48.228;11.686;2022-09-13T18:56:18;21.5;68
70682;SHT31;58261;48.228;11.686;2022-09-13T18:59:38;21.5;68
70682;SHT31;58261;48.228;11.686;2022-09-13T19:02:58;21.5;68
70682;SHT31;58261;48.228;11.686;2022-09-13T19:06:18;21.5;68
70682;SHT31;58261;48.228;11.686;2022-09-13T19:09:38;21.3;68
70682;SHT31;58261;48.228;11.686;2022-09-13T19:12:58;21.3;68
70682;SHT31;58261;48.228;11.686;2022-09-13T19:16:18;21.3;68
70682;SHT31;58261;48.228;11.686;2022-09-13T19:19:38;21.2;68
70682;SHT31;58261;48.228;11.686;2022-09-13T19:22:58;21.2;68
70682;SHT31;58261;48.228;11.686;2022-09-13T19:26:19;21.2;68
70682;SHT31;58261;48.228;11.686;2022-09-13T19:29:38;21.2;69
70682;SHT31;58261;48.228;11.686;2022-09-13T19:32:58;21.2;69
70682;SHT31;58261;48.228;11.686;2022-09-13T19:36:18;21.2;69
70682;SHT31;58261;48.228;11.686;2022-09-13T19:39:38;21.2;69
70682;SHT31;58261;48.228;11.686;2022-09-13T19:42:58;21.1;69
70682;SHT31;58261;48.228;11.686;2022-09-13T19:46:19;21.1;69
70682;SHT31;58261;48.228;11.686;2022-09-13T19:49:38;21.1;69
70682;SHT31;58261;48.228;11.686;2022-09-13T19:52:58;20.9;69
70682;SHT31;58261;48.228;11.686;2022-09-13T19:56:18;20.9;69
70682;SHT31;58261;48.228;11.686;2022-09-13T19:59:38;20.9;69
70682;SHT31;58261;48.228;11.686;2022-09-13T20:02:58;20.8;70
70682;SHT31;58261;48.228;11.686;2022-09-13T20:06:18;20.8;70
70682;SHT31;58261;48.228;11.686;2022-09-13T20:09:38;20.8;70
70682;SHT31;58261;48.228;11.686;2022-09-13T20:12:58;20.6;70
70682;SHT31;58261;48.228;11.686;2022-09-13T20:16:19;20.6;70
70682;SHT31;58261;48.228;11.686;2022-09-13T20:19:38;20.6;70
70682;SHT31;58261;48.228;11.686;2022-09-13T20:22:58;20.6;70
70682;SHT31;58261;48.228;11.686;2022-09-13T20:26:18;20.4;71
70682;SHT31;58261;48.228;11.686;2022-09-13T20:29:38;20.4;71
70682;SHT31;58261;48.228;11.686;2022-09-13T20:32:58;20.4;71
70682;SHT31;58261;48.228;11.686;2022-09-13T20:36:18;20.3;71
70682;SHT31;58261;48.228;11.686;2022-09-13T20:39:38;20.3;71
70682;SHT31;58261;48.228;11.686;2022-09-13T20:42:58;20.3;71
70682;SHT31;58261;48.228;11.686;2022-09-13T20:46:18;20.2;71
70682;SHT31;58261;48.228;11.686;2022-09-13T20:49:38;20.2;71
70682;SHT31;58261;48.228;11.686;2022-09-13T20:52:58;20.2;71
70682;SHT31;58261;48.228;11.686;2022-09-13T20:56:18;20.1;71
70682;SHT31;58261;48.228;11.686;2022-09-13T20:59:38;20.1;71
70682;SHT31;58261;48.228;11.686;2022-09-13T21:02:58;20.1;71
70682;SHT31;58261;48.228;11.686;2022-09-13T21:06:18;20.1;71
70682;SHT31;58261;48.228;11.686;2022-09-13T21:09:38;20.0;72
70682;SHT31;58261;48.228;11.686;2022-09-13T21:12:58;20.0;72
70682;SHT31;58261;48.228;11.686;2022-09-13T21:16:19;20.0;72
70682;SHT31;58261;48.228;11.686;2022-09-13T21:19:38;19.7;73
70682;SHT31;58261;48.228;11.686;2022-09-13T21:22:58;19.7;73
70682;SHT31;58261;48.228;11.686;2022-09-13T21:26:19;19.7;73
70682;SHT31;58261;48.228;11.686;2022-09-13T21:29:38;19.7;73
70682;SHT31;58261;48.228;11.686;2022-09-13T21:32:58;19.7;73
70682;SHT31;58261;48.228;11.686;2022-09-13T21:36:18;19.7;73
70682;SHT31;58261;48.228;11.686;2022-09-13T21:39:38;19.5;73
70682;SHT31;58261;48.228;11.686;2022-09-13T21:42:58;19.5;73
70682;SHT31;58261;48.228;11.686;2022-09-13T21:46:19;19.5;73
70682;SHT31;58261;48.228;11.686;2022-09-13T21:49:38;19.5;73
70682;SHT31;58261;48.228;11.686;2022-09-13T21:52:58;19.4;74
70682;SHT31;58261;48.228;11.686;2022-09-13T21:56:18;19.4;74
70682;SHT31;58261;48.228;11.686;2022-09-13T21:59:36;19.4;74
70682;SHT31;58261;48.228;11.686;2022-09-13T22:02:55;19.4;74
70682;SHT31;58261;48.228;11.686;2022-09-13T22:06:16;19.4;74
70682;SHT31;58261;48.228;11.686;2022-09-13T22:09:35;19.4;74
70682;SHT31;58261;48.228;11.686;2022-09-13T22:12:55;19.3;74
70682;SHT31;58261;48.228;11.686;2022-09-13T22:16:16;19.3;74
70682;SHT31;58261;48.228;11.686;2022-09-13T22:19:35;19.3;74
70682;SHT31;58261;48.228;11.686;2022-09-13T22:22:55;19.5;74
70682;SHT31;58261;48.228;11.686;2022-09-13T22:26:16;19.5;74
70682;SHT31;58261;48.228;11.686;2022-09-13T22:29:35;19.5;74
70682;SHT31;58261;48.228;11.686;2022-09-13T22:32:55;19.5;74
70682;SHT31;58261;48.228;11.686;2022-09-13T22:36:16;19.5;74
70682;SHT31;58261;48.228;11.686;2022-09-13T22:39:35;19.5;74
70682;SHT31;58261;48.228;11.686;2022-09-13T22:42:55;19.5;74
70682;SHT31;58261;48.228;11.686;2022-09-13T22:46:17;19.6;73
70682;SHT31;58261;48.228;11.686;2022-09-13T22:49:35;19.6;73